• Join FlightAware (Why Join?)
  • Login
  • US Flag 
06:41PM EDT


 

Airport Tracker/Info


-or-


 

Live Flight TrackerFlight Track Log ✈ N237RB ✈ 12-Jul-2013 ✈ KLXT - KCPS

Flight Track Log - Related Links

Times and Time Zones

All times are in EDT time to prevent confusion due to time zone crossing. See the N237RB flight status page for this flight to view local times or setup timezone preferences in your user account.

Time Position Orientation Groundspeed Altitude Reporting Facility
EDT Latitude Longitude Course Direction KTS MPH feet Rate Location/Type
12:41PM 38.9500 -94.3000 89° East 105 121 2,500  Level Kansas City TRACON
12:43PM 38.9506 -94.2306 89° East 125 144 4,000 840 Climbing Kansas City Center
12:44PM 38.9469 -94.1869 96° East 129 148 4,900 900 Climbing Kansas City Center
12:45PM 38.9428 -94.1353 96° East 131 151 5,900 900 Climbing Kansas City Center
12:46PM 38.9389 -94.0903 96° East 134 154 6,800 480 Climbing Kansas City Center
12:47PM 38.9342 -94.0386 97° East 152 175 7,000  Climbing Kansas City Center
12:48PM 38.9275 -93.9653 97° East 185 213 6,900 -60 Descending Kansas City Center
12:49PM 38.9231 -93.9025 95° East 185 213 6,900  Level Kansas City Center
12:50PM 38.9167 -93.8311 97° East 180 207 6,900  Level Kansas City Center
12:51PM 38.9139 -93.7697 93° East 179 206 6,900  Level Kansas City Center
12:52PM 38.9069 -93.6989 97° East 177 204 6,900  Level Kansas City Center
12:53PM 38.9017 -93.6344 96° East 181 208 6,900  Level Kansas City Center
12:55PM 38.8903 -93.5086 97° East 178 205 6,900  Level Kansas City Center
12:56PM 38.8858 -93.4456 95° East 176 203 6,900  Level Kansas City Center
12:57PM 38.8825 -93.3789 94° East 181 208 6,900  Level Kansas City Center
12:58PM 38.8756 -93.3019 97° East 181 208 6,900  Level Kansas City Center
12:59PM 38.8703 -93.2383 96° East 179 206 6,900  Level Kansas City Center
01:00PM 38.8658 -93.1725 95° East 181 208 6,900  Level Kansas City Center
01:01PM 38.8589 -93.1089 98° East 180 207 6,900  Level Kansas City Center
01:02PM 38.8544 -93.0436 95° East 182 209 7,000  Climbing Kansas City Center
01:03PM 38.8483 -92.9786 97° East 183 211 7,000  Level Kansas City Center
01:04PM 38.8417 -92.9014 96° East 182 209 7,000  Level Kansas City Center
01:05PM 38.8356 -92.8367 97° East 181 208 7,000  Level Kansas City Center
01:06PM 38.8300 -92.7706 96° East 184 212 7,000  Level Kansas City Center
01:07PM 38.8233 -92.7075 98° East 181 208 7,000  Level Kansas City Center
01:08PM 38.8181 -92.6439 96° East 180 207 7,000  Level Kansas City Center
01:09PM 38.8131 -92.5792 96° East 181 208 7,000  Level Kansas City Center
01:10PM 38.8075 -92.5153 96° East 180 207 7,000  Level Kansas City Center
01:12PM 38.8017 -92.4406 96° East 176 203 7,000  Level Kansas City Center
01:13PM 38.7950 -92.3778 98° East 177 204 7,000  Level Kansas City Center
01:14PM 38.7894 -92.3097 96° East 179 206 7,000  Level Kansas City Center
01:15PM 38.7831 -92.2506 98° East 178 205 7,000  Level Kansas City Center
01:16PM 38.7767 -92.1878 97° East 178 205 7,000  Level Kansas City Center
01:17PM 38.7717 -92.1253 96° East 176 203 7,000  Level Kansas City Center
01:18PM 38.7650 -92.0636 98° East 175 201 7,000  Level Kansas City Center
01:19PM 38.7594 -91.9886 95° East 175 201 7,000  Level Kansas City Center
01:20PM 38.7522 -91.9264 98° East 175 201 7,000  Level Kansas City Center
01:21PM 38.7461 -91.8631 97° East 177 204 7,000  Level Kansas City Center
01:22PM 38.7414 -91.8019 96° East 174 200 7,000  Level Kansas City Center
01:23PM 38.7353 -91.7414 97° East 173 199 7,000  Level Kansas City Center
01:24PM 38.7281 -91.6775 98° East 175 201 7,000  Level Kansas City Center
01:25PM 38.7233 -91.6144 95° East 177 204 7,000 -60 Level Kansas City Center
01:26PM 38.7172 -91.5536 97° East 175 201 6,900 -300 Descending Kansas City Center
01:27PM 38.7094 -91.4769 97° East 178 205 6,500 -420 Descending Kansas City Center
01:28PM 38.7019 -91.4097 98° East 184 212 6,100 -420 Descending Kansas City Center
01:29PM 38.6956 -91.3431 97° East 189 217 5,700 -420 Descending Kansas City Center
01:30PM 38.6889 -91.2778 97° East 188 216 5,300 -360 Descending Kansas City Center
01:31PM 38.6819 -91.2139 98° East 184 212 5,000 -180 Descending Kansas City Center
01:32PM 38.6758 -91.1536 97° East 175 201 5,000  Level Kansas City Center
01:33PM 38.6692 -91.0847 97° East 166 191 5,000  Level Kansas City Center
01:34PM 38.6631 -91.0264 98° East 166 191 5,000  Level Kansas City Center
01:35PM 38.6572 -90.9697 97° East 164 189 5,000 -300 Level Kansas City Center
01:36PM 38.6425 -90.9117 108° East 168 193 4,500 -540 Descending Kansas City Center
01:37PM 38.6264 -90.8514 109° East 176 203 4,000 -300 Descending Kansas City Center
01:38PM 38.6097 -90.7822 107° East 173 199 4,000  Level Kansas City Center
01:39PM 38.5969 -90.7272 107° East 165 190 4,000  Level Kansas City Center
01:40PM 38.5850 -90.6728 106° East 162 186 4,000  Level Kansas City Center
01:42PM 38.5722 -90.6194 107° East 160 184 4,000 -60 Level Kansas City Center
01:43PM 38.5597 -90.5672 107° East 157 181 3,900 -360 Descending Kansas City Center
01:44PM 38.5442 -90.4989 106° East 163 188 3,300 -540 Descending Kansas City Center
01:45PM 38.5472 -90.4400 86° East 171 197 2,900 -360 Descending Kansas City Center
01:46PM 38.5544 -90.3825 81° East 169 194 2,600 -180 Descending Kansas City Center
01:47PM 38.5636 -90.3322 77° East 157 181 2,600 -180 Level Kansas City Center
01:48PM 38.5783 -90.2864 68° East 147 169 2,300 -420 Descending Kansas City Center
01:49PM 38.5903 -90.2392 72° East 126 145 1,800 -540 Descending Kansas City Center
01:50PM 38.5925 -90.2028 86° East 111 128 1,200 -600 Descending Kansas City Center
01:51PM 38.5778 -90.1722 122° Southeast 105 121 600 -600 Descending Kansas City Center
01:53PM 38.5667 -90.1500 90° East  Level FlightAware Approximate
02:00PM 38.5704 -90.1551 90° East  Level Estimated